createdAt,value
2019-04-23T00:02:30.128Z,50.90
2019-04-23T00:05:08.052Z,51.00
2019-04-23T00:15:13.395Z,51.20
2019-04-23T00:18:02.804Z,51.50
2019-04-23T00:20:14.749Z,51.40
2019-04-23T00:22:51.663Z,51.30
2019-04-23T00:25:45.262Z,51.40
2019-04-23T00:28:01.742Z,51.40
2019-04-23T00:30:38.222Z,51.50
2019-04-23T00:33:05.358Z,51.50
2019-04-23T00:35:34.057Z,51.60
2019-04-23T00:38:04.700Z,51.70
2019-04-23T00:40:39.290Z,51.90
2019-04-23T00:43:09.190Z,52.00
2019-04-23T00:48:26.069Z,52.20
2019-04-23T00:53:18.884Z,52.60
2019-04-23T00:55:52.868Z,52.70
2019-04-23T00:58:31.896Z,53.70
2019-04-23T01:00:52.798Z,53.20
2019-04-23T01:03:24.056Z,53.30
2019-04-23T01:05:57.104Z,53.60
2019-04-23T01:08:28.513Z,53.80
2019-04-23T01:13:43.196Z,54.00
2019-04-23T01:21:07.439Z,54.50
2019-04-23T01:23:54.784Z,54.80
2019-04-23T01:26:46.064Z,54.70
2019-04-23T01:29:19.942Z,54.80
2019-04-23T01:31:54.783Z,55.00
2019-04-23T01:34:28.039Z,55.20
2019-04-23T01:36:52.369Z,55.30
2019-04-23T01:39:24.390Z,55.60
2019-04-23T01:42:04.133Z,55.70
2019-04-23T01:44:42.347Z,55.80
2019-04-23T01:47:04.102Z,55.90
2019-04-23T01:49:37.578Z,56.00
2019-04-23T01:52:09.450Z,56.20
2019-04-23T01:54:37.085Z,56.40
2019-04-23T01:57:09.672Z,57.40
2019-04-23T01:59:40.430Z,56.60
2019-04-23T02:02:17.004Z,56.90
2019-04-23T02:04:46.018Z,56.90
2019-04-23T02:07:11.307Z,57.00
2019-04-23T02:09:51.578Z,57.20
2019-04-23T02:12:21.249Z,57.40
2019-04-23T02:14:50.179Z,57.60
2019-04-23T02:17:23.077Z,57.60
2019-04-23T02:19:51.290Z,57.70
2019-04-23T02:22:56.250Z,58.60
2019-04-23T02:25:28.049Z,57.90
2019-04-23T02:27:54.413Z,58.00
2019-04-23T02:30:45.282Z,58.10
2019-04-23T02:33:12.579Z,58.40
2019-04-23T02:35:52.872Z,58.30
2019-04-23T02:40:44.698Z,58.50
2019-04-23T02:45:39.229Z,58.70
2019-04-23T02:48:10.535Z,58.80
2019-04-23T02:50:39.679Z,58.70
2019-04-23T02:53:14.672Z,58.80
2019-04-23T03:01:13.457Z,59.10
2019-04-23T03:05:57.381Z,59.30
2019-04-23T03:08:26.897Z,59.40
2019-04-23T03:11:41.701Z,59.30
2019-04-23T03:16:15.578Z,59.50
2019-04-23T03:19:02.575Z,59.60
2019-04-23T03:21:56.140Z,59.70
2019-04-23T03:24:34.947Z,59.70
2019-04-23T03:29:31.660Z,59.90
2019-04-23T03:35:09.209Z,60.00
2019-04-23T03:39:40.134Z,59.90
2019-04-23T03:42:09.968Z,60.20
2019-04-23T03:47:15.106Z,61.20
2019-04-23T03:49:48.709Z,60.30
2019-04-23T03:57:22.355Z,61.20
2019-04-23T03:59:55.049Z,60.30
2019-04-23T04:02:31.024Z,60.50
2019-04-23T04:07:28.300Z,60.50
2019-04-23T04:09:51.943Z,60.40
2019-04-23T04:17:35.525Z,60.20
2019-04-23T04:22:38.085Z,60.30
2019-04-23T04:30:10.782Z,60.00
2019-04-23T04:35:16.146Z,59.30
2019-04-23T04:40:18.241Z,58.40
2019-04-23T04:42:42.197Z,57.60
2019-04-23T04:50:35.129Z,56.00
2019-04-23T04:55:23.585Z,54.90
2019-04-23T04:58:07.408Z,54.30
2019-04-23T05:03:11.861Z,53.60
2019-04-23T05:05:55.378Z,54.00
2019-04-23T05:07:54.823Z,53.30
2019-04-23T05:10:43.689Z,52.40
2019-04-23T05:20:52.670Z,53.10
2019-04-23T05:23:19.497Z,53.70
2019-04-23T05:25:49.660Z,53.40
2019-04-23T05:28:18.763Z,53.20
2019-04-23T05:31:01.954Z,52.80
2019-04-23T05:33:22.384Z,53.10
2019-04-23T05:36:18.351Z,53.30
2019-04-23T05:38:37.098Z,53.40
2019-04-23T05:41:03.948Z,52.80
2019-04-23T05:43:32.736Z,52.00
2019-04-23T05:46:09.772Z,52.10
2019-04-23T05:48:34.809Z,52.00
2019-04-23T05:51:16.184Z,51.80
2019-04-23T05:53:40.777Z,51.90
2019-04-23T05:56:06.480Z,52.10
2019-04-23T05:58:44.701Z,52.60
2019-04-23T06:01:47.803Z,53.20
2019-04-23T06:03:56.839Z,53.20
2019-04-23T06:09:03.519Z,53.00
2019-04-23T06:11:36.993Z,52.80
2019-04-23T06:16:36.309Z,51.70
2019-04-23T06:19:07.987Z,51.20
2019-04-23T06:21:44.384Z,51.30
2019-04-23T06:24:16.735Z,51.30
2019-04-23T06:31:44.081Z,51.70
2019-04-23T06:36:45.833Z,50.60
2019-04-23T06:39:21.449Z,50.70
2019-04-23T06:41:49.937Z,51.00
2019-04-23T06:49:44.117Z,50.20
2019-04-23T06:52:10.484Z,49.20
2019-04-23T06:59:35.269Z,44.20
2019-04-23T07:02:16.187Z,43.60
2019-04-23T07:04:51.485Z,43.90
2019-04-23T07:09:44.068Z,45.40
2019-04-23T07:12:18.223Z,46.10
2019-04-23T07:14:51.425Z,47.00
2019-04-23T07:17:16.711Z,47.60
2019-04-23T07:19:46.701Z,47.20
2019-04-23T07:24:52.873Z,46.70
2019-04-23T07:27:27.760Z,46.70
2019-04-23T07:30:03.932Z,47.20
2019-04-23T07:32:48.024Z,46.80
2019-04-23T07:37:35.637Z,46.40
2019-04-23T07:42:48.126Z,46.00
2019-04-23T07:45:17.117Z,45.90
2019-04-23T07:48:10.590Z,45.30
2019-04-23T07:50:41.329Z,45.40
2019-04-23T07:53:13.176Z,45.20
2019-04-23T08:05:44.035Z,44.30
2019-04-23T08:08:30.186Z,44.40
2019-04-23T08:11:23.595Z,44.70
2019-04-23T08:13:39.762Z,43.70
2019-04-23T08:16:20.249Z,44.00
2019-04-23T08:18:44.960Z,44.40
2019-04-23T08:23:49.589Z,44.80
2019-04-23T08:31:43.816Z,44.20
2019-04-23T08:34:23.916Z,44.30
2019-04-23T08:36:50.154Z,44.30
2019-04-23T08:39:33.909Z,43.80
2019-04-23T08:41:59.636Z,44.30
2019-04-23T08:44:38.716Z,44.30
2019-04-23T08:47:06.894Z,44.20
2019-04-23T08:52:10.175Z,43.20
2019-04-23T08:57:10.955Z,43.00
2019-04-23T08:59:43.889Z,43.40
2019-04-23T09:02:22.072Z,43.60
2019-04-23T09:05:02.491Z,43.20
2019-04-23T09:07:24.130Z,43.10
2019-04-23T09:09:53.544Z,43.40
2019-04-23T09:14:51.247Z,42.40
2019-04-23T09:20:11.850Z,41.80
2019-04-23T09:24:55.728Z,41.90
2019-04-23T09:27:26.199Z,41.80
2019-04-23T09:30:00.309Z,41.70
2019-04-23T09:32:31.668Z,41.50
2019-04-23T09:35:25.913Z,41.30
2019-04-23T09:38:11.303Z,40.70
2019-04-23T09:41:15.554Z,40.70
2019-04-23T09:43:29.599Z,41.30
2019-04-23T09:48:50.824Z,40.30
2019-04-23T09:51:18.102Z,39.20
2019-04-23T09:53:50.912Z,38.50
2019-04-23T09:56:14.150Z,38.60
2019-04-23T09:58:59.103Z,38.40
2019-04-23T10:03:52.106Z,37.30
2019-04-23T10:06:14.551Z,37.50
2019-04-23T10:08:47.438Z,37.90
2019-04-23T10:11:13.732Z,37.40
2019-04-23T10:13:45.101Z,36.80
2019-04-23T10:16:19.472Z,36.60
2019-04-23T10:18:49.055Z,36.60
2019-04-23T10:21:19.564Z,36.60
2019-04-23T10:23:49.709Z,37.00
2019-04-23T10:26:19.825Z,35.70
2019-04-23T10:28:51.855Z,35.30
2019-04-23T10:31:22.933Z,34.80
2019-04-23T10:33:53.492Z,34.50
2019-04-23T10:36:27.579Z,34.80
2019-04-23T10:39:02.575Z,33.80
2019-04-23T10:41:28.641Z,33.60
2019-04-23T10:44:02.735Z,33.60
2019-04-23T10:47:00.143Z,35.20
2019-04-23T10:52:13.036Z,34.90
2019-04-23T10:54:41.906Z,34.70
2019-04-23T10:57:13.094Z,34.90
2019-04-23T10:59:43.531Z,34.50
2019-04-23T11:09:56.949Z,31.80
2019-04-23T11:12:42.414Z,32.10
2019-04-23T11:15:08.626Z,31.70
2019-04-23T11:17:38.785Z,31.70
2019-04-23T11:20:14.870Z,30.00
2019-04-23T11:25:15.425Z,28.70
2019-04-23T11:30:19.581Z,28.40
2019-04-23T11:32:53.798Z,29.30
2019-04-23T11:35:24.442Z,29.40
2019-04-23T11:38:09.120Z,30.00
2019-04-23T11:40:21.459Z,30.80
2019-04-23T11:42:49.565Z,30.80
2019-04-23T11:45:38.811Z,30.70
2019-04-23T11:50:39.706Z,29.70
2019-04-23T11:55:41.111Z,30.00
2019-04-23T11:58:07.868Z,29.20
2019-04-23T12:00:46.309Z,29.40
2019-04-23T12:02:59.111Z,29.10
2019-04-23T12:06:03.022Z,30.00
2019-04-23T12:08:31.946Z,30.70
2019-04-23T12:11:26.884Z,30.20
2019-04-23T12:16:00.869Z,30.00
2019-04-23T12:18:42.929Z,30.00
2019-04-23T12:21:13.104Z,30.10
2019-04-23T12:23:49.822Z,29.70
2019-04-23T12:26:22.751Z,29.30
2019-04-23T12:28:53.645Z,29.40
2019-04-23T12:31:18.035Z,28.70
2019-04-23T12:33:50.518Z,29.20
2019-04-23T12:39:05.370Z,28.10
2019-04-23T12:41:41.718Z,28.10
2019-04-23T12:46:38.528Z,29.00
2019-04-23T12:49:28.348Z,29.10
2019-04-23T12:51:47.286Z,29.00
2019-04-23T12:54:24.402Z,28.90
2019-04-23T12:56:56.820Z,29.20
2019-04-23T12:59:18.936Z,29.40
2019-04-23T13:01:49.753Z,29.30
2019-04-23T13:04:26.131Z,29.40
2019-04-23T13:06:50.911Z,29.20
2019-04-23T13:09:36.975Z,29.90
2019-04-23T13:12:26.981Z,30.00
2019-04-23T13:14:39.513Z,30.90
2019-04-23T13:17:14.226Z,31.50
2019-04-23T13:19:39.683Z,31.50
2019-04-23T13:22:07.940Z,31.70
2019-04-23T13:24:50.135Z,32.50
2019-04-23T13:27:29.105Z,32.20
2019-04-23T13:32:27.496Z,32.20
2019-04-23T13:37:36.683Z,32.70
2019-04-23T13:40:02.268Z,33.40
2019-04-23T13:42:40.929Z,33.40
2019-04-23T13:45:07.302Z,33.50
2019-04-23T13:58:05.116Z,33.50
2019-04-23T14:00:20.684Z,33.40
2019-04-23T14:02:46.167Z,33.30
2019-04-23T14:05:23.800Z,33.70
2019-04-23T14:07:57.075Z,34.00
2019-04-23T14:10:29.178Z,34.00
2019-04-23T14:13:08.428Z,34.40
2019-04-23T14:15:42.823Z,34.80
2019-04-23T14:18:21.835Z,35.30
2019-04-23T14:20:36.830Z,35.00
2019-04-23T14:25:50.704Z,35.20
2019-04-23T14:35:54.191Z,36.00
2019-04-23T14:41:05.439Z,36.90
2019-04-23T14:43:26.185Z,36.60
2019-04-23T14:46:18.787Z,36.70
2019-04-23T14:48:33.020Z,37.00
2019-04-23T14:51:07.046Z,37.30
2019-04-23T14:56:09.394Z,37.80
2019-04-23T14:58:42.574Z,37.80
2019-04-23T15:01:22.248Z,37.60
2019-04-23T15:06:20.123Z,37.80
2019-04-23T15:11:27.611Z,38.10
2019-04-23T15:13:51.928Z,38.30
2019-04-23T15:24:15.619Z,38.50
2019-04-23T15:28:57.127Z,38.50
2019-04-23T15:31:48.904Z,38.40
2019-04-23T15:34:20.945Z,38.40
2019-04-23T15:39:27.136Z,38.30
2019-04-23T15:41:59.358Z,38.30
2019-04-23T15:44:16.747Z,38.50
2019-04-23T15:46:56.215Z,38.20
2019-04-23T15:52:00.687Z,37.90
2019-04-23T15:54:35.413Z,37.50
2019-04-23T16:01:42.033Z,37.50
2019-04-23T16:04:09.232Z,37.70
2019-04-23T16:06:38.983Z,37.70
2019-04-23T16:09:40.262Z,37.90
2019-04-23T16:12:03.222Z,37.80
2019-04-23T16:14:47.970Z,37.90
2019-04-23T16:17:21.188Z,38.10
2019-04-23T16:20:09.300Z,38.30
2019-04-23T16:22:25.059Z,38.60
2019-04-23T16:25:06.733Z,38.70
2019-04-23T16:27:31.706Z,38.90
2019-04-23T16:30:15.930Z,39.10
2019-04-23T16:33:07.942Z,39.30
2019-04-23T16:38:07.665Z,39.90
2019-04-23T16:40:33.049Z,40.10
2019-04-23T16:43:11.478Z,40.10
2019-04-23T16:45:33.279Z,40.30
2019-04-23T16:48:17.215Z,40.40
2019-04-23T16:50:57.939Z,40.50
2019-04-23T16:53:16.113Z,41.20
2019-04-23T16:58:22.231Z,40.80
2019-04-23T17:03:32.961Z,40.80
2019-04-23T17:06:01.651Z,41.00
2019-04-23T17:13:25.579Z,41.10
2019-04-23T17:16:06.579Z,41.00
2019-04-23T17:18:32.000Z,41.10
2019-04-23T17:20:58.241Z,41.20
2019-04-23T17:23:40.104Z,41.30
2019-04-23T17:26:11.275Z,41.40
2019-04-23T17:28:51.762Z,41.70
2019-04-23T17:31:26.580Z,41.90
2019-04-23T17:33:43.521Z,42.00
2019-04-23T17:42:00.234Z,42.60
2019-04-23T17:44:45.469Z,42.80
2019-04-23T17:47:06.132Z,42.70
2019-04-23T17:49:36.291Z,43.00
2019-04-23T17:52:14.423Z,43.70
2019-04-23T17:54:43.476Z,43.30
2019-04-23T18:00:00.579Z,43.70
2019-04-23T18:02:40.983Z,43.70
2019-04-23T18:04:56.876Z,43.80
2019-04-23T18:07:36.312Z,44.00
2019-04-23T18:10:11.658Z,44.20
2019-04-23T18:12:38.822Z,44.40
2019-04-23T18:15:03.408Z,44.30
2019-04-23T18:20:04.964Z,44.70
2019-04-23T18:27:46.677Z,45.20
2019-04-23T18:30:24.218Z,45.30
2019-04-23T18:33:38.268Z,45.80
2019-04-23T18:37:58.369Z,46.10
2019-04-23T18:40:28.477Z,46.80
2019-04-23T18:43:17.201Z,46.40
2019-04-23T18:45:45.100Z,46.50
2019-04-23T18:48:39.003Z,46.80
2019-04-23T18:56:09.344Z,47.40
2019-04-23T18:58:50.368Z,47.50
2019-04-23T19:01:29.718Z,48.50
2019-04-23T19:03:55.567Z,47.80
2019-04-23T19:09:10.698Z,48.40
2019-04-23T19:12:05.133Z,48.60
2019-04-23T19:14:31.601Z,48.70
2019-04-23T19:17:08.973Z,48.90
2019-04-23T19:19:29.606Z,49.10
2019-04-23T19:22:17.473Z,49.40
2019-04-23T19:25:01.204Z,49.40
2019-04-23T19:27:10.910Z,49.70
2019-04-23T19:32:06.305Z,49.90
2019-04-23T19:34:58.948Z,50.00
2019-04-23T19:37:44.311Z,50.30
2019-04-23T19:40:10.586Z,50.40
2019-04-23T19:42:44.766Z,50.70
2019-04-23T19:45:15.994Z,51.00
2019-04-23T19:47:56.821Z,51.00
2019-04-23T19:50:26.266Z,51.70
2019-04-23T19:53:05.535Z,51.30
2019-04-23T19:55:24.300Z,51.40
2019-04-23T19:58:01.333Z,51.60
2019-04-23T20:00:37.593Z,51.60
2019-04-23T20:05:24.669Z,51.80
2019-04-23T20:08:02.229Z,51.90
2019-04-23T20:10:34.308Z,51.90
2019-04-23T20:13:02.181Z,51.80
2019-04-23T20:15:53.362Z,51.80
2019-04-23T20:17:59.547Z,51.80
2019-04-23T20:20:49.811Z,51.90
2019-04-23T20:23:08.916Z,52.20
2019-04-23T20:31:58.263Z,51.90
2019-04-23T20:32:25.583Z,52.00
2019-04-23T20:34:14.128Z,52.00
2019-04-23T20:39:06.163Z,52.10
2019-04-23T20:42:07.848Z,52.10
2019-04-23T20:47:01.685Z,52.30
2019-04-23T20:49:42.375Z,52.40
2019-04-23T20:57:33.429Z,52.50
2019-04-23T20:59:56.752Z,52.60
2019-04-23T21:02:41.586Z,52.70
2019-04-23T21:05:06.237Z,52.70
2019-04-23T21:07:41.878Z,52.80
2019-04-23T21:12:50.149Z,52.90
2019-04-23T21:15:16.039Z,53.10
2019-04-23T21:17:52.617Z,53.20
2019-04-23T21:20:16.242Z,53.20
2019-04-23T21:22:40.033Z,53.20
2019-04-23T21:25:00.296Z,53.30
2019-04-23T21:30:50.712Z,53.70
2019-04-23T21:33:11.573Z,53.70
2019-04-23T21:36:10.518Z,53.80
2019-04-23T21:38:58.699Z,53.80
2019-04-23T21:41:29.996Z,53.90
2019-04-23T21:46:20.620Z,54.10
2019-04-23T21:51:41.966Z,54.10
2019-04-23T21:53:55.441Z,54.10
2019-04-23T21:56:31.365Z,54.10
2019-04-23T21:59:06.591Z,54.00
2019-04-23T22:01:39.738Z,53.90
2019-04-23T22:04:39.789Z,53.90
2019-04-23T22:14:29.079Z,53.90
2019-04-23T22:16:49.939Z,53.90
2019-04-23T22:19:15.480Z,53.80
2019-04-23T22:21:54.568Z,53.70
2019-04-23T22:24:12.376Z,53.70
2019-04-23T22:26:48.963Z,53.80
2019-04-23T22:29:26.155Z,53.70
2019-04-23T22:31:51.755Z,53.70
2019-04-23T22:34:33.951Z,53.80
2019-04-23T22:37:04.195Z,53.80
2019-04-23T22:39:31.654Z,54.00
2019-04-23T22:42:04.318Z,54.10
2019-04-23T22:44:39.164Z,54.50
2019-04-23T22:47:14.108Z,54.80
2019-04-23T22:49:45.413Z,55.20
2019-04-23T22:52:16.431Z,55.60
2019-04-23T22:54:49.453Z,56.70
2019-04-23T22:57:45.206Z,56.10
2019-04-23T22:59:54.400Z,56.70
2019-04-23T23:02:29.076Z,57.20
2019-04-23T23:05:18.206Z,57.40
2019-04-23T23:07:28.983Z,57.90
2019-04-23T23:10:12.989Z,58.10
2019-04-23T23:12:43.681Z,58.30
2019-04-23T23:17:42.043Z,58.70
2019-04-23T23:20:20.566Z,58.90
2019-04-23T23:25:12.959Z,59.10
2019-04-23T23:27:53.682Z,59.40
2019-04-23T23:30:08.857Z,59.50
2019-04-23T23:32:49.053Z,59.80
2019-04-23T23:35:24.369Z,59.80
2019-04-23T23:37:54.321Z,59.80
2019-04-23T23:40:21.545Z,59.80
2019-04-23T23:43:08.804Z,59.90
2019-04-23T23:47:59.196Z,60.00
2019-04-23T23:50:25.577Z,60.00
2019-04-23T23:53:09.282Z,60.20
2019-04-23T23:55:27.729Z,59.90
2019-04-23T23:58:11.385Z,60.20
